Terminal Aerodrome Forecast
Issued by NWS Northern Indiana

Home | Current Version | Previous Version | Graphics & Text | Print | Product List | Glossary On
Versions: 1 2 3 4 5 6 7 8 9 10 11 12 13 14 15 16 17 18
433
FTUS43 KIWX 261734 AAA
TAFFWA
TAF AMD
KFWA 261734Z 2618/2718 18018G26KT P6SM SCT040
     FM270400 16012KT P6SM SCT050 BKN100 WS020/19045KT
     FM270900 19015G23KT P6SM VCSH OVC040
     FM271400 22016G26KT P6SM VCSH BKN020=

USA.gov is the U.S. government's official web portal to all federal, state and local government web resources and services.